createdAt,value
2023-04-03T00:02:03.365Z,100256.47
2023-04-03T00:05:06.334Z,100212.31
2023-04-03T00:08:10.509Z,100242.25
2023-04-03T00:11:12.926Z,100230.16
2023-04-03T00:14:15.556Z,100234.56
2023-04-03T00:17:17.938Z,100208.44
2023-04-03T00:20:20.474Z,100239.91
2023-04-03T00:23:24.647Z,100228.75
2023-04-03T00:26:27.048Z,100232.19
2023-04-03T00:29:29.609Z,100225.44
2023-04-03T00:32:32.522Z,100182.97
2023-04-03T00:35:36.182Z,100222.91
2023-04-03T00:38:39.170Z,100223.94
2023-04-03T00:41:42.022Z,100223.25
2023-04-03T00:44:44.959Z,100234.31
2023-04-03T00:47:47.503Z,100212.50
2023-04-03T00:50:51.427Z,100226.88
2023-04-03T00:54:02.124Z,100213.47
2023-04-03T00:57:06.938Z,100237.31
2023-04-03T01:00:13.499Z,100199.94
2023-04-03T01:03:16.085Z,100212.00
2023-04-03T01:06:22.816Z,100223.06
2023-04-03T01:09:25.589Z,100242.03
2023-04-03T01:12:30.721Z,100249.00
2023-04-03T01:15:36.078Z,100257.69
2023-04-03T01:18:41.351Z,100259.00
2023-04-03T01:22:05.544Z,100265.72
2023-04-03T01:25:08.042Z,100270.91
2023-04-03T01:28:21.417Z,100264.06
2023-04-03T01:31:36.474Z,100266.59
2023-04-03T01:34:39.080Z,100239.00
2023-04-03T01:37:42.165Z,100233.94
2023-04-03T01:40:45.878Z,100227.22
2023-04-03T01:43:49.504Z,100236.81
2023-04-03T01:46:51.862Z,100231.81
2023-04-03T01:49:56.818Z,100246.25
2023-04-03T01:52:59.618Z,100238.72
2023-04-03T01:56:02.527Z,100236.31
2023-04-03T01:59:07.324Z,100232.13
2023-04-03T02:02:10.466Z,100252.63
2023-04-03T02:05:12.879Z,100248.47
2023-04-03T02:08:15.763Z,100271.34
2023-04-03T02:11:18.120Z,100271.41
2023-04-03T02:14:21.269Z,100278.94
2023-04-03T02:17:23.752Z,100275.47
2023-04-03T02:20:27.266Z,100257.69
2023-04-03T02:23:29.764Z,100253.34
2023-04-03T02:26:32.147Z,100258.31
2023-04-03T02:29:34.545Z,100287.06
2023-04-03T02:32:37.162Z,100285.34
2023-04-03T02:35:41.013Z,100280.16
2023-04-03T02:38:43.782Z,100275.94
2023-04-03T02:41:46.964Z,100263.41
2023-04-03T02:44:55.044Z,100292.16
2023-04-03T02:47:57.890Z,100281.31
2023-04-03T02:51:00.318Z,100287.28
2023-04-03T02:54:02.953Z,100263.53
2023-04-03T02:57:11.370Z,100270.47
2023-04-03T03:00:15.402Z,100264.41
2023-04-03T03:03:18.200Z,100270.44
2023-04-03T03:06:20.897Z,100293.47
2023-04-03T03:09:23.733Z,100262.06
2023-04-03T03:12:26.136Z,100263.00
2023-04-03T03:15:28.555Z,100297.75
2023-04-03T03:18:31.586Z,100287.69
2023-04-03T03:21:34.060Z,100260.66
2023-04-03T03:24:37.799Z,100256.63
2023-04-03T03:27:40.334Z,100260.06
2023-04-03T03:30:43.135Z,100292.28
2023-04-03T03:33:45.785Z,100284.75
2023-04-03T03:36:48.145Z,100274.69
2023-04-03T03:39:50.853Z,100217.06
2023-04-03T03:42:53.477Z,100247.63
2023-04-03T03:45:56.448Z,100268.69
2023-04-03T03:49:00.619Z,100261.97
2023-04-03T03:52:03.038Z,100278.28
2023-04-03T03:55:13.218Z,100250.28
2023-04-03T03:58:16.599Z,100267.06
2023-04-03T04:01:19.204Z,100234.06
2023-04-03T04:04:24.320Z,100273.13
2023-04-03T04:07:29.195Z,100273.13
2023-04-03T04:10:32.288Z,100246.97
2023-04-03T04:13:35.894Z,100242.66
2023-04-03T04:16:38.282Z,100244.50
2023-04-03T04:19:45.737Z,100261.44
2023-04-03T04:22:48.427Z,100249.75
2023-04-03T04:25:52.172Z,100271.81
2023-04-03T04:28:55.633Z,100295.00
2023-04-03T04:31:58.207Z,100298.41
2023-04-03T04:35:01.520Z,100244.34
2023-04-03T04:38:06.522Z,100297.00
2023-04-03T04:41:09.547Z,100294.50
2023-04-03T04:44:12.572Z,100285.13
2023-04-03T04:47:16.658Z,100264.91
2023-04-03T04:50:19.942Z,100321.53
2023-04-03T04:53:23.080Z,100295.91
2023-04-03T04:56:26.551Z,100306.09
2023-04-03T04:59:37.526Z,100274.19
2023-04-03T05:02:42.966Z,100316.38
2023-04-03T05:05:46.144Z,100331.19
2023-04-03T05:08:49.039Z,100308.06
2023-04-03T05:11:53.213Z,100329.66
2023-04-03T05:14:59.288Z,100295.97
2023-04-03T05:18:03.376Z,100322.94
2023-04-03T05:21:06.061Z,100304.72
2023-04-03T05:24:10.266Z,100325.91
2023-04-03T05:27:15.757Z,100310.84
2023-04-03T05:30:21.777Z,100343.41
2023-04-03T05:33:27.247Z,100312.19
2023-04-03T05:36:32.437Z,100339.47
2023-04-03T05:39:41.800Z,100329.41
2023-04-03T05:42:46.079Z,100299.28
2023-04-03T05:45:49.815Z,100323.91
2023-04-03T05:48:52.585Z,100352.34
2023-04-03T05:51:57.871Z,100347.44
2023-04-03T05:55:04.590Z,100315.69
2023-04-03T05:58:11.729Z,100332.56
2023-04-03T06:01:16.009Z,100310.56
2023-04-03T06:04:20.259Z,100350.81
2023-04-03T06:07:24.973Z,100326.25
2023-04-03T06:10:27.672Z,100333.31
2023-04-03T06:13:30.497Z,100336.31
2023-04-03T06:16:33.453Z,100329.38
2023-04-03T06:19:36.919Z,100339.84
2023-04-03T06:22:39.366Z,100299.84
2023-04-03T06:25:41.870Z,100343.03
2023-04-03T06:28:44.699Z,100341.97
2023-04-03T06:31:47.465Z,100366.47
2023-04-03T06:34:49.878Z,100335.50
2023-04-03T06:37:52.260Z,100357.13
2023-04-03T06:40:55.016Z,100321.94
2023-04-03T06:43:58.956Z,100335.66
2023-04-03T06:47:01.965Z,100354.78
2023-04-03T06:50:04.955Z,100334.16
2023-04-03T06:53:08.178Z,100349.47
2023-04-03T06:56:10.776Z,100340.06
2023-04-03T06:59:14.741Z,100368.22
2023-04-03T07:02:17.303Z,100360.53
2023-04-03T07:05:19.928Z,100383.72
2023-04-03T07:08:24.225Z,100352.78
2023-04-03T07:11:27.697Z,100371.47
2023-04-03T07:14:31.048Z,100377.31
2023-04-03T07:17:33.610Z,100401.06
2023-04-03T07:20:36.431Z,100413.31
2023-04-03T07:23:39.530Z,100407.41
2023-04-03T07:26:42.150Z,100396.41
2023-04-03T07:29:45.125Z,100397.38
2023-04-03T07:32:47.834Z,100429.31
2023-04-03T07:35:50.730Z,100408.41
2023-04-03T07:38:53.423Z,100399.13
2023-04-03T07:41:58.939Z,100428.28
2023-04-03T07:45:01.868Z,100421.81
2023-04-03T07:48:04.535Z,100440.22
2023-04-03T07:51:07.230Z,100442.84
2023-04-03T07:54:10.023Z,100434.72
2023-04-03T07:57:12.765Z,100450.03
2023-04-03T08:00:18.767Z,100416.69
2023-04-03T08:03:21.369Z,100443.09
2023-04-03T08:06:37.474Z,100452.94
2023-04-03T08:09:46.556Z,100425.75
2023-04-03T08:12:49.353Z,100433.44
2023-04-03T08:15:51.948Z,100446.00
2023-04-03T08:18:55.861Z,100419.59
2023-04-03T08:21:59.655Z,100440.09
2023-04-03T08:25:02.886Z,100452.84
2023-04-03T08:28:06.630Z,100436.94
2023-04-03T08:31:12.820Z,100455.03
2023-04-03T08:34:15.678Z,100434.44
2023-04-03T08:37:20.723Z,100432.91
2023-04-03T08:40:23.373Z,100425.19
2023-04-03T08:43:31.536Z,100426.63
2023-04-03T08:47:03.311Z,100461.56
2023-04-03T08:50:16.486Z,100406.66
2023-04-03T08:53:27.783Z,100427.25
2023-04-03T08:56:32.116Z,100452.84
2023-04-03T08:59:37.355Z,100448.34
2023-04-03T09:02:47.325Z,100457.31
2023-04-03T09:06:22.785Z,100472.63
2023-04-03T09:09:33.373Z,100449.56
2023-04-03T09:12:43.731Z,100414.06
2023-04-03T09:15:46.101Z,100449.94
2023-04-03T09:18:56.866Z,100467.72
2023-04-03T09:22:24.869Z,100481.56
2023-04-03T09:25:33.757Z,100475.19
2023-04-03T09:28:49.307Z,100451.25
2023-04-03T09:32:17.011Z,100454.88
2023-04-03T09:35:47.210Z,100490.16
2023-04-03T09:39:09.202Z,100467.44
2023-04-03T09:42:32.090Z,100473.47
2023-04-03T09:45:37.199Z,100497.53
2023-04-03T09:48:39.795Z,100469.97
2023-04-03T09:51:42.498Z,100495.19
2023-04-03T09:54:45.023Z,100488.06
2023-04-03T09:57:51.521Z,100476.03
2023-04-03T10:01:00.364Z,100499.47
2023-04-03T10:04:13.968Z,100509.41
2023-04-03T10:07:38.255Z,100517.47
2023-04-03T10:10:42.685Z,100513.06
2023-04-03T10:14:00.657Z,100498.75
2023-04-03T10:17:24.280Z,100503.50
2023-04-03T10:20:32.719Z,100537.72
2023-04-03T10:23:49.910Z,100544.00
2023-04-03T10:27:03.859Z,100529.97
2023-04-03T10:30:21.943Z,100550.13
2023-04-03T10:33:48.896Z,100555.75
2023-04-03T10:37:22.045Z,100572.56
2023-04-03T10:40:35.735Z,100558.09
2023-04-03T10:43:58.243Z,100548.44
2023-04-03T10:47:15.668Z,100547.59
2023-04-03T10:50:45.945Z,100557.81
2023-04-03T10:53:58.510Z,100531.66
2023-04-03T10:57:12.518Z,100557.88
2023-04-03T11:00:19.284Z,100558.53
2023-04-03T11:03:25.683Z,100569.94
2023-04-03T11:06:37.856Z,100527.56
2023-04-03T11:09:45.092Z,100550.69
2023-04-03T11:12:53.769Z,100536.75
2023-04-03T11:15:58.929Z,100542.59
2023-04-03T11:19:13.360Z,100560.16
2023-04-03T11:22:28.025Z,100556.22
2023-04-03T11:25:33.845Z,100547.13
2023-04-03T11:28:38.199Z,100538.94
2023-04-03T11:32:07.738Z,100566.53
2023-04-03T11:35:10.923Z,100553.44
2023-04-03T11:38:23.985Z,100569.88
2023-04-03T11:41:32.293Z,100556.03
2023-04-03T11:44:39.366Z,100553.47
2023-04-03T11:47:47.757Z,100582.19
2023-04-03T11:50:51.458Z,100542.72
2023-04-03T11:53:54.577Z,100590.09
2023-04-03T11:56:57.101Z,100602.59
2023-04-03T11:59:59.475Z,100565.66
2023-04-03T12:03:02.350Z,100574.97
2023-04-03T12:06:17.828Z,100600.28
2023-04-03T12:09:34.150Z,100547.97
2023-04-03T12:12:41.690Z,100583.16
2023-04-03T12:15:52.931Z,100581.50
2023-04-03T12:19:13.754Z,100578.47
2023-04-03T12:22:21.540Z,100581.25
2023-04-03T12:25:50.882Z,100571.66
2023-04-03T12:28:56.584Z,100556.78
2023-04-03T12:32:18.439Z,100582.03
2023-04-03T12:35:50.421Z,100572.16
2023-04-03T12:38:59.902Z,100572.16
2023-04-03T12:42:24.264Z,100525.59
2023-04-03T12:45:27.336Z,100535.94
2023-04-03T12:48:32.574Z,100567.72
2023-04-03T12:51:39.598Z,100571.63
2023-04-03T12:54:42.954Z,100559.38
2023-04-03T12:57:45.779Z,100560.09
2023-04-03T13:01:11.012Z,100549.78
2023-04-03T13:04:13.754Z,100561.41
2023-04-03T13:07:34.450Z,100565.41
2023-04-03T13:10:50.409Z,100546.91
2023-04-03T13:14:01.319Z,100565.25
2023-04-03T13:17:17.479Z,100534.03
2023-04-03T13:20:22.197Z,100555.00
2023-04-03T13:23:25.495Z,100541.75
2023-04-03T13:26:32.618Z,100509.25
2023-04-03T13:29:37.759Z,100547.41
2023-04-03T13:32:40.436Z,100553.63
2023-04-03T13:35:43.053Z,100552.97
2023-04-03T13:38:45.950Z,100543.53
2023-04-03T13:41:51.606Z,100533.09
2023-04-03T13:45:29.598Z,100523.16
2023-04-03T13:48:44.646Z,100561.34
2023-04-03T13:51:54.146Z,100554.63
2023-04-03T13:55:25.798Z,100568.50
2023-04-03T13:58:30.999Z,100564.19
2023-04-03T14:01:50.828Z,100537.38
2023-04-03T14:05:01.052Z,100562.78
2023-04-03T14:08:03.703Z,100570.50
2023-04-03T14:11:06.130Z,100577.50
2023-04-03T14:14:19.041Z,100541.00
2023-04-03T14:17:26.005Z,100562.25
2023-04-03T14:20:29.256Z,100578.72
2023-04-03T14:23:32.019Z,100591.84
2023-04-03T14:26:34.734Z,100555.63
2023-04-03T14:29:37.219Z,100571.72
2023-04-03T14:32:39.952Z,100595.91
2023-04-03T14:35:42.875Z,100605.50
2023-04-03T14:38:45.781Z,100583.50
2023-04-03T14:41:48.174Z,100594.53
2023-04-03T14:44:51.414Z,100613.91
2023-04-03T14:47:56.256Z,100597.28
2023-04-03T14:51:05.734Z,100621.00
2023-04-03T14:54:17.359Z,100598.69
2023-04-03T14:57:20.136Z,100637.03
2023-04-03T15:00:23.271Z,100626.03
2023-04-03T15:03:25.773Z,100621.41
2023-04-03T15:06:28.305Z,100645.38
2023-04-03T15:09:30.816Z,100611.78
2023-04-03T15:12:33.205Z,100639.50
2023-04-03T15:15:38.045Z,100608.13
2023-04-03T15:18:40.650Z,100641.94
2023-04-03T15:21:43.089Z,100638.63
2023-04-03T15:24:46.207Z,100655.47
2023-04-03T15:27:49.216Z,100613.53
2023-04-03T15:30:51.839Z,100595.25
2023-04-03T15:33:54.248Z,100650.34
2023-04-03T15:36:56.686Z,100634.41
2023-04-03T15:40:00.027Z,100639.03
2023-04-03T15:43:02.424Z,100594.06
2023-04-03T15:46:05.057Z,100593.63
2023-04-03T15:49:07.648Z,100615.63
2023-04-03T15:52:10.655Z,100590.44
2023-04-03T15:55:13.037Z,100633.09
2023-04-03T15:58:15.499Z,100630.66
2023-04-03T16:01:18.324Z,100625.63
2023-04-03T16:04:21.940Z,100614.97
2023-04-03T16:07:24.534Z,100596.22
2023-04-03T16:10:27.781Z,100587.84
2023-04-03T16:13:30.338Z,100592.22
2023-04-03T16:16:33.078Z,100634.00
2023-04-03T16:19:35.913Z,100631.69
2023-04-03T16:22:39.030Z,100630.13
2023-04-03T16:25:46.768Z,100608.97
2023-04-03T16:28:49.632Z,100633.72
2023-04-03T16:31:53.021Z,100659.53
2023-04-03T16:34:56.155Z,100621.31
2023-04-03T16:37:58.507Z,100622.19
2023-04-03T16:41:05.280Z,100636.03
2023-04-03T16:44:08.584Z,100654.00
2023-04-03T16:47:11.914Z,100624.31
2023-04-03T16:50:14.884Z,100666.94
2023-04-03T16:53:17.386Z,100660.31
2023-04-03T16:56:19.894Z,100669.66
2023-04-03T16:59:22.795Z,100653.59
2023-04-03T17:02:26.437Z,100651.06
2023-04-03T17:05:29.056Z,100653.69
2023-04-03T17:08:31.574Z,100632.44
2023-04-03T17:14:41.672Z,100661.41
2023-04-03T17:17:44.345Z,100668.28
2023-04-03T17:20:46.774Z,100681.09
2023-04-03T17:23:58.637Z,100702.47
2023-04-03T17:27:01.241Z,100710.22
2023-04-03T17:30:05.188Z,100726.44
2023-04-03T17:33:07.698Z,100710.31
2023-04-03T17:36:10.717Z,100700.94
2023-04-03T17:39:13.332Z,100690.81
2023-04-03T17:42:16.317Z,100706.16
2023-04-03T17:45:18.849Z,100732.63
2023-04-03T17:48:21.282Z,100713.06
2023-04-03T17:51:24.195Z,100733.50
2023-04-03T17:54:26.680Z,100735.22
2023-04-03T17:57:30.969Z,100747.19
2023-04-03T18:00:33.378Z,100710.53
2023-04-03T18:03:36.291Z,100719.91
2023-04-03T18:06:46.259Z,100725.06
2023-04-03T18:09:50.808Z,100738.69
2023-04-03T18:12:53.908Z,100718.28
2023-04-03T18:15:56.798Z,100720.84
2023-04-03T18:19:17.646Z,100743.03
2023-04-03T18:22:24.114Z,100766.03
2023-04-03T18:25:26.741Z,100731.09
2023-04-03T18:28:34.487Z,100738.81
2023-04-03T18:31:37.481Z,100754.97
2023-04-03T18:34:40.014Z,100740.50
2023-04-03T18:37:42.632Z,100759.31
2023-04-03T18:40:47.369Z,100766.13
2023-04-03T18:43:50.562Z,100763.53
2023-04-03T18:46:53.997Z,100779.78
2023-04-03T18:49:57.855Z,100780.59
2023-04-03T18:53:00.567Z,100764.44
2023-04-03T18:56:03.721Z,100792.56
2023-04-03T18:59:06.227Z,100796.00
2023-04-03T19:02:09.390Z,100772.94
2023-04-03T19:05:15.077Z,100796.00
2023-04-03T19:08:18.060Z,100788.31
2023-04-03T19:11:20.615Z,100787.47
2023-04-03T19:14:23.260Z,100747.34
2023-04-03T19:17:26.019Z,100717.50
2023-04-03T19:20:29.094Z,100764.44
2023-04-03T19:23:31.857Z,100726.03
2023-04-03T19:26:34.448Z,100724.34
2023-04-03T19:29:36.913Z,100712.38
2023-04-03T19:32:39.873Z,100742.22
2023-04-03T19:35:42.903Z,100732.88
2023-04-03T19:38:46.777Z,100709.00
2023-04-03T19:41:49.919Z,100707.28
2023-04-03T19:44:52.608Z,100716.66
2023-04-03T19:47:55.159Z,100732.88
2023-04-03T19:50:58.690Z,100731.13
2023-04-03T19:54:01.180Z,100718.38
2023-04-03T19:57:03.982Z,100721.78
2023-04-03T20:00:07.236Z,100700.44
2023-04-03T20:03:14.874Z,100685.97
2023-04-03T20:06:17.510Z,100717.50
2023-04-03T20:09:21.878Z,100706.41
2023-04-03T20:12:24.463Z,100711.53
2023-04-03T20:15:28.423Z,100679.13
2023-04-03T20:18:31.369Z,100653.56
2023-04-03T20:21:34.417Z,100679.13
2023-04-03T20:24:36.798Z,100687.66
2023-04-03T20:27:40.318Z,100680.00
2023-04-03T20:30:47.711Z,100650.16
2023-04-03T20:33:51.375Z,100680.84
2023-04-03T20:36:53.783Z,100685.13
2023-04-03T20:39:56.439Z,100661.25
2023-04-03T20:42:58.843Z,100668.03
2023-04-03T20:46:02.566Z,100662.94
2023-04-03T20:49:05.241Z,100631.38
2023-04-03T20:52:07.934Z,100630.53
2023-04-03T20:55:11.022Z,100625.41
2023-04-03T20:58:13.651Z,100656.09
2023-04-03T21:01:21.305Z,100621.16
2023-04-03T21:04:46.806Z,100661.22
2023-04-03T21:08:27.371Z,100654.38
2023-04-03T21:12:07.468Z,100667.19
2023-04-03T21:15:46.862Z,100644.16
2023-04-03T21:18:57.305Z,100645.88
2023-04-03T21:22:00.630Z,100624.56
2023-04-03T21:25:03.145Z,100625.41
2023-04-03T21:28:05.706Z,100613.47
2023-04-03T21:31:08.804Z,100612.63
2023-04-03T21:34:11.261Z,100624.53
2023-04-03T21:37:14.443Z,100633.09
2023-04-03T21:40:17.643Z,100633.09
2023-04-03T21:43:19.998Z,100600.72
2023-04-03T21:46:22.495Z,100628.84
2023-04-03T21:49:25.892Z,100590.47
2023-04-03T21:52:28.364Z,100572.59
2023-04-03T21:55:30.711Z,100579.38
2023-04-03T21:58:33.920Z,100564.91
2023-04-03T22:01:36.820Z,100593.00
2023-04-03T22:04:39.346Z,100586.19
2023-04-03T22:07:45.881Z,100568.34
2023-04-03T22:10:48.380Z,100563.22
2023-04-03T22:13:52.334Z,100584.53
2023-04-03T22:16:54.829Z,100593.00
2023-04-03T22:19:57.235Z,100598.97
2023-04-03T22:22:59.631Z,100564.91
2023-04-03T22:26:06.336Z,100604.09
2023-04-03T22:29:08.919Z,100593.84
2023-04-03T22:32:11.294Z,100605.81
2023-04-03T22:35:13.936Z,100607.53
2023-04-03T22:38:16.966Z,100602.41
2023-04-03T22:41:19.366Z,100573.47
2023-04-03T22:44:22.260Z,100616.88
2023-04-03T22:47:25.925Z,100598.16
2023-04-03T22:50:28.403Z,100620.31
2023-04-03T22:53:31.164Z,100586.22
2023-04-03T22:56:33.592Z,100579.38
2023-04-03T22:59:36.043Z,100613.50
2023-04-03T23:02:38.465Z,100592.19
2023-04-03T23:05:40.865Z,100587.06
2023-04-03T23:08:43.735Z,100567.50
2023-04-03T23:11:46.367Z,100571.75
2023-04-03T23:14:48.749Z,100611.78
2023-04-03T23:17:51.171Z,100605.81
2023-04-03T23:20:55.063Z,100586.22
2023-04-03T23:23:57.937Z,100599.84
2023-04-03T23:27:00.386Z,100594.75
2023-04-03T23:30:03.177Z,100580.25
2023-04-03T23:33:07.219Z,100591.31
2023-04-03T23:36:10.278Z,100560.69
2023-04-03T23:39:12.824Z,100578.56
2023-04-03T23:42:15.293Z,100569.19
2023-04-03T23:45:17.667Z,100591.31
2023-04-03T23:48:20.548Z,100564.94
2023-04-03T23:51:23.033Z,100597.31
2023-04-03T23:54:25.709Z,100576.03
2023-04-03T23:57:28.120Z,100538.53
